Time;durP1;ratioP1;P1;durP2;ratioP2;P2;SDS_P1;SDS_P2;PMS_P1;PMS_P2;Temp;Humidity;BMP_temperature;BMP_pressure;BME280_temperature;BME280_humidity;BME280_pressure;Samples;Min_cycle;Max_cycle;Signal;HPM_P1;HPM_P2
2021/08/30 00:01:10;;;;;;;;;5.00;5.00;;;;;20.02;57.86;101437.09;5078125;28;47279;-52
2021/08/30 00:03:36;;;;;;;;;4.00;4.00;;;;;20.04;57.67;101434.31;5074573;28;46000;-49
2021/08/30 00:06:01;;;;;;;;;5.67;5.00;;;;;20.03;58.06;101421.81;5076899;28;45590;-53
2021/08/30 00:08:27;;;;;;;;;7.33;6.33;;;;;20.03;58.05;101427.19;5045136;28;45517;-49
2021/08/30 00:10:52;;;;;;;;;4.33;4.33;;;;;20.02;58.13;101437.09;5078037;27;45541;-51
2021/08/30 00:13:18;;;;;;;;;3.67;3.67;;;;;19.98;58.05;101425.59;5077676;28;46120;-51
2021/08/30 00:15:43;;;;;;;;;6.00;6.00;;;;;19.99;58.17;101437.25;5077048;27;45588;-52
2021/08/30 00:18:09;;;;;;;;;3.00;3.00;;;;;19.98;57.88;101427.44;5077269;28;45359;-51
2021/08/30 00:20:34;;;;;;;;;3.67;3.67;;;;;19.99;58.33;101426.47;5064100;28;48336;-49
2021/08/30 00:23:00;;;;;;;;;4.33;4.33;;;;;20.00;57.91;101428.22;5081229;28;45342;-52
2021/08/30 00:25:25;;;;;;;;;7.33;7.00;;;;;19.97;58.21;101431.06;5062146;28;45446;-52
2021/08/30 00:27:50;;;;;;;;;5.33;4.33;;;;;19.97;57.76;101428.38;5080796;28;45612;-49
2021/08/30 00:30:16;;;;;;;;;8.00;5.67;;;;;19.93;57.75;101426.75;5062287;28;48244;-49
2021/08/30 00:32:42;;;;;;;;;7.67;6.33;;;;;19.91;57.89;101429.53;5080093;28;45659;-53
2021/08/30 00:35:08;;;;;;;;;6.50;6.50;;;;;19.89;57.79;101426.06;5080810;28;45464;-50
2021/08/30 00:37:34;;;;;;;;;8.67;6.33;;;;;19.89;58.26;101430.56;5080943;28;45614;-53
2021/08/30 00:39:59;;;;;;;;;8.67;8.00;;;;;19.86;57.93;101423.53;5072503;27;48695;-52
2021/08/30 00:42:26;;;;;;;;;10.00;7.00;;;;;19.89;58.33;101419.78;5062251;28;45433;-53
2021/08/30 00:44:53;;;;;;;;;6.75;6.00;;;;;19.89;58.31;101423.34;5079452;28;45551;-50
2021/08/30 00:47:19;;;;;;;;;6.00;6.00;;;;;19.91;57.95;101425.97;5081085;28;45509;-52
2021/08/30 00:49:45;;;;;;;;;5.33;5.00;;;;;19.88;58.31;101413.53;5082800;27;45793;-50
2021/08/30 00:52:10;;;;;;;;;8.50;6.75;;;;;19.86;58.42;101418.13;5080514;27;45560;-49
2021/08/30 00:54:36;;;;;;;;;7.75;7.75;;;;;19.85;57.99;101418.22;5062276;28;45544;-51
2021/08/30 00:57:03;;;;;;;;;6.00;6.00;;;;;19.85;58.43;101405.63;5080562;28;45420;-52
2021/08/30 00:59:29;;;;;;;;;9.25;7.50;;;;;19.86;58.13;101415.44;5079501;28;47667;-52
2021/08/30 01:01:55;;;;;;;;;8.50;7.00;;;;;19.85;58.32;101410.13;5058753;28;45541;-52
2021/08/30 01:04:20;;;;;;;;;6.75;6.00;;;;;19.85;58.37;101410.13;5079983;27;45358;-48
2021/08/30 01:06:51;;;;;;;;;9.50;6.75;;;;;19.81;58.71;101417.47;5078890;27;45382;-49
2021/08/30 01:09:47;;;;;;;;;6.00;6.00;;;;;19.78;58.76;101414.94;5080430;27;47575;-50
2021/08/30 01:12:31;;;;;;;;;8.00;8.00;;;;;19.76;59.05;101399.81;5028887;28;46155;-51
2021/08/30 01:15:04;;;;;;;;;11.50;11.50;;;;;19.73;58.92;101414.28;5079118;28;45481;-50
2021/08/30 01:17:32;;;;;;;;;7.00;7.00;;;;;19.69;59.62;101410.88;5076612;28;45294;-51
2021/08/30 01:20:10;;;;;;;;;8.00;8.00;;;;;19.68;59.50;101408.25;5080376;27;45443;-51
2021/08/30 01:22:41;;;;;;;;;11.75;10.50;;;;;19.66;59.57;101404.75;5075290;28;45604;-50
2021/08/30 01:25:09;;;;;;;;;8.25;8.00;;;;;19.65;59.71;101411.09;5080292;28;45363;-52
2021/08/30 01:27:36;;;;;;;;;8.25;8.25;;;;;19.64;60.02;101409.34;5079428;28;45399;-52
2021/08/30 01:30:12;;;;;;;;;10.00;9.00;;;;;19.64;60.11;101406.66;5077598;27;48329;-52
2021/08/30 01:32:41;;;;;;;;;11.25;9.50;;;;;19.65;60.53;101395.81;5082180;27;45640;-51
2021/08/30 01:35:13;;;;;;;;;11.50;9.50;;;;;19.65;60.03;101390.41;5079425;28;45644;-53
2021/08/30 01:37:40;;;;;;;;;11.75;9.50;;;;;19.63;59.77;101397.69;5079646;27;45540;-52
2021/08/30 01:40:09;;;;;;;;;10.75;10.75;;;;;19.64;60.56;101401.25;5079470;28;48455;-52
2021/08/30 01:42:40;;;;;;;;;9.50;9.25;;;;;19.61;60.55;101396.91;5072242;28;45416;-51
2021/08/30 01:45:10;;;;;;;;;9.00;9.00;;;;;19.60;60.41;101397.84;5079660;28;45492;-51
2021/08/30 01:47:37;;;;;;;;;10.00;10.00;;;;;19.60;60.53;101397.00;5077997;27;45809;-49
2021/08/30 01:50:05;;;;;;;;;11.50;10.75;;;;;19.58;60.52;101394.38;5052862;27;46840;-52
2021/08/30 01:52:42;;;;;;;;;9.75;9.75;;;;;19.61;60.55;101394.22;5079022;28;45864;-54
2021/08/30 02:03:18;;;;;;;;;17.00;11.00;;;;;19.61;60.73;101380.75;5082880;27;46187;-53
2021/08/30 02:05:47;;;;;;;;;12.75;10.50;;;;;19.63;61.00;101395.00;5078766;27;45760;-53
2021/08/30 02:08:15;;;;;;;;;10.00;7.25;;;;;19.62;61.16;101387.00;5079090;27;45378;-52
2021/08/30 02:10:46;;;;;;;;;9.00;9.00;;;;;19.60;60.91;101386.22;5080170;28;45733;-50
2021/08/30 02:13:13;;;;;;;;;8.25;8.00;;;;;19.59;61.52;101390.72;5060246;28;45352;-49
2021/08/30 02:15:39;;;;;;;;;9.00;7.00;;;;;19.60;61.64;101402.38;5079264;28;45484;-50
2021/08/30 02:18:25;;;;;;;;;7.00;7.00;;;;;19.60;61.30;101397.84;5070065;27;45264;-50
2021/08/30 02:21:29;;;;;;;;;9.00;9.00;;;;;19.58;61.89;101388.13;5078863;27;47324;-52
2021/08/30 02:24:11;;;;;;;;;14.50;11.25;;;;;19.56;61.91;101396.25;5036370;28;45268;-52
2021/08/30 02:27:02;;;;;;;;;7.50;7.50;;;;;19.54;62.07;101390.03;5076999;27;45385;-52
2021/08/30 02:29:36;;;;;;;;;9.00;9.00;;;;;19.53;61.81;101393.66;5071413;27;45512;-52
2021/08/30 02:32:04;;;;;;;;;10.00;8.50;;;;;19.54;62.31;101392.72;5079085;28;47735;-51
2021/08/30 02:34:32;;;;;;;;;11.75;10.00;;;;;19.56;62.06;101388.16;5078033;27;45395;-51
2021/08/30 02:36:59;;;;;;;;;11.75;11.75;;;;;19.55;62.16;101389.13;5078655;27;45414;-52
2021/08/30 02:39:27;;;;;;;;;9.00;9.00;;;;;19.56;62.04;101384.59;5079087;27;45255;-53
2021/08/30 02:41:54;;;;;;;;;10.33;10.33;;;;;19.55;62.37;101390.94;5080919;27;47452;-51
2021/08/30 02:44:20;;;;;;;;;8.00;8.00;;;;;19.56;62.64;101381.91;5078859;27;45426;-53
2021/08/30 02:46:47;;;;;;;;;8.00;8.00;;;;;19.55;62.40;101389.13;5074003;27;45891;-53
2021/08/30 02:49:14;;;;;;;;;9.00;8.00;;;;;19.56;62.54;101387.28;5074577;27;45551;-52
2021/08/30 02:51:42;;;;;;;;;14.00;12.00;;;;;19.56;63.11;101388.16;5078729;28;46327;-50
2021/08/30 02:54:09;;;;;;;;;9.75;9.00;;;;;19.55;62.85;101391.81;5078596;28;45679;-51
2021/08/30 02:56:37;;;;;;;;;10.33;9.33;;;;;19.56;62.83;101388.16;5078895;28;45496;-52
2021/08/30 02:59:03;;;;;;;;;11.33;8.67;;;;;19.57;62.93;101392.63;5077971;27;45674;-51
2021/08/30 03:01:30;;;;;;;;;11.25;11.25;;;;;19.60;62.43;101394.28;5077705;28;45543;-51
2021/08/30 03:03:56;;;;;;;;;19.50;19.50;;;;;19.61;62.75;101393.34;5078411;28;46175;-53
2021/08/30 03:06:23;;;;;;;;;9.25;8.00;;;;;19.62;63.02;101390.56;5078276;28;46460;-53
2021/08/30 03:08:48;;;;;;;;;10.75;9.25;;;;;19.61;63.15;101387.97;5050620;28;45356;-51
2021/08/30 03:11:16;;;;;;;;;7.00;7.00;;;;;19.62;62.55;101382.50;5059696;28;47875;-52
2021/08/30 03:13:46;;;;;;;;;11.33;11.33;;;;;19.64;63.15;101379.72;5077407;28;45388;-51
2021/08/30 03:16:12;;;;;;;;;11.50;10.75;;;;;19.65;63.15;101376.94;5074056;28;45348;-52
2021/08/30 03:18:40;;;;;;;;;10.50;10.50;;;;;19.65;63.24;101381.47;5078536;28;45416;-53
2021/08/30 03:21:07;;;;;;;;;12.25;11.00;;;;;19.64;62.86;101374.34;5078826;27;48369;-53
2021/08/30 03:23:35;;;;;;;;;9.75;9.75;;;;;19.63;63.17;101376.16;5078104;28;45531;-52
2021/08/30 03:26:02;;;;;;;;;10.25;9.50;;;;;19.63;63.35;101384.25;5060377;28;45437;-53
2021/08/30 03:28:29;;;;;;;;;11.25;11.25;;;;;19.62;63.63;101373.53;5078055;28;45414;-51
2021/08/30 03:30:56;;;;;;;;;12.33;11.67;;;;;19.60;63.33;101370.94;5075704;28;48299;-53
2021/08/30 03:33:23;;;;;;;;;10.25;10.25;;;;;19.61;63.22;101369.97;5059402;28;45650;-52
2021/08/30 03:35:51;;;;;;;;;12.75;11.50;;;;;19.59;63.75;101369.19;5077640;28;45453;-51
2021/08/30 03:38:17;;;;;;;;;13.25;11.75;;;;;19.62;63.76;101371.72;5077323;28;45577;-50
2021/08/30 03:40:44;;;;;;;;;11.50;11.00;;;;;19.64;63.57;101368.94;5063086;28;46874;-50
2021/08/30 03:43:10;;;;;;;;;14.25;12.00;;;;;19.66;64.01;101367.94;5077755;28;45422;-53
2021/08/30 03:45:37;;;;;;;;;12.00;10.75;;;;;19.67;63.48;101363.41;5076950;28;45759;-52
2021/08/30 03:48:04;;;;;;;;;12.50;12.00;;;;;19.68;63.47;101368.72;5078464;28;45687;-53
2021/08/30 03:50:30;;;;;;;;;11.75;11.50;;;;;19.69;63.20;101361.50;5077198;27;48210;-51
2021/08/30 03:52:56;;;;;;;;;11.00;7.67;;;;;19.73;63.81;101368.50;5077339;28;45313;-51
2021/08/30 03:55:21;;;;;;;;;12.50;11.00;;;;;19.74;63.84;101369.38;5078032;28;45247;-51
2021/08/30 03:57:51;;;;;;;;;6.75;6.75;;;;;19.72;63.89;101366.78;5077397;28;45549;-49
2021/08/30 04:00:17;;;;;;;;;14.75;12.75;;;;;19.72;63.73;101372.16;5059095;28;48224;-53
2021/08/30 04:02:43;;;;;;;;;11.25;11.00;;;;;19.73;63.95;101370.34;5059327;28;45497;-53
2021/08/30 04:05:11;;;;;;;;;12.25;12.25;;;;;19.74;63.68;101374.78;5077359;28;45445;-53
2021/08/30 04:07:37;;;;;;;;;14.50;11.25;;;;;19.73;64.00;101368.50;5077342;28;45490;-53
2021/08/30 04:10:04;;;;;;;;;13.00;13.00;;;;;19.75;64.07;101368.44;5076693;27;47362;-51
2021/08/30 04:12:30;;;;;;;;;13.33;12.33;;;;;19.76;63.76;101370.19;5077544;27;45491;-53
2021/08/30 04:14:56;;;;;;;;;11.00;11.00;;;;;19.78;63.37;101370.97;5076927;28;45768;-49
2021/08/30 04:17:21;;;;;;;;;15.50;12.75;;;;;19.78;63.48;101369.16;5058876;28;45502;-51
2021/08/30 04:19:47;;;;;;;;;12.75;12.75;;;;;19.77;63.46;101371.91;5059643;28;45749;-53
2021/08/30 04:22:12;;;;;;;;;11.00;11.00;;;;;19.77;63.68;101370.09;5080957;27;45390;-50
2021/08/30 04:24:38;;;;;;;;;16.00;16.00;;;;;19.78;63.71;101365.56;5077193;27;45471;-53
2021/08/30 04:27:04;;;;;;;;;16.75;15.25;;;;;19.76;64.00;101367.47;5078052;28;45598;-53
2021/08/30 04:29:31;;;;;;;;;12.00;11.00;;;;;19.75;64.22;101363.03;5058694;28;47239;-50
2021/08/30 04:31:58;;;;;;;;;13.00;12.33;;;;;19.73;64.32;101370.34;5077819;28;45581;-52
2021/08/30 04:34:24;;;;;;;;;16.50;14.00;;;;;19.73;64.23;101370.34;5077750;28;45490;-52
2021/08/30 04:36:50;;;;;;;;;15.75;14.75;;;;;19.75;64.07;101372.00;5077227;27;45472;-50
2021/08/30 04:39:17;;;;;;;;;15.50;14.25;;;;;19.76;63.99;101372.88;5051029;28;47181;-50
2021/08/30 04:41:43;;;;;;;;;15.00;15.00;;;;;19.76;63.88;101372.88;5080945;27;46021;-52
2021/08/30 04:44:10;;;;;;;;;17.75;16.25;;;;;19.76;64.22;101370.19;5077711;27;45394;-53
2021/08/30 04:46:36;;;;;;;;;14.50;14.50;;;;;19.76;64.24;101373.75;5077157;28;45342;-50
2021/08/30 04:49:02;;;;;;;;;17.50;16.25;;;;;19.77;64.50;101371.91;5077090;28;46404;-51
2021/08/30 04:51:27;;;;;;;;;17.25;16.00;;;;;19.75;64.25;101380.06;5059470;28;45335;-52
2021/08/30 04:53:53;;;;;;;;;16.25;16.25;;;;;19.74;64.61;101380.16;5057861;28;45496;-52
2021/08/30 04:56:18;;;;;;;;;22.00;18.25;;;;;19.73;64.67;101378.41;5078069;28;45471;-52
2021/08/30 04:58:44;;;;;;;;;19.00;16.50;;;;;19.74;64.48;101388.22;5058736;28;46950;-53
2021/08/30 05:01:09;;;;;;;;;18.75;17.50;;;;;19.75;64.61;101385.47;5070833;28;45576;-53
2021/08/30 05:03:35;;;;;;;;;17.50;16.75;;;;;19.77;64.90;101375.47;5058715;28;45858;-54
2021/08/30 05:06:00;;;;;;;;;17.75;16.50;;;;;19.77;64.56;101378.19;5078493;28;45471;-52
2021/08/30 05:08:25;;;;;;;;;22.25;20.25;;;;;19.80;64.65;101387.91;5085486;27;47155;-50
2021/08/30 05:10:51;;;;;;;;;19.25;18.50;;;;;19.80;64.75;101386.09;5080730;27;46056;-50
2021/08/30 05:13:16;;;;;;;;;21.75;18.75;;;;;19.82;64.77;101388.72;5080340;28;45787;-52
2021/08/30 05:15:42;;;;;;;;;19.25;19.00;;;;;19.80;64.75;101391.47;5075508;27;45412;-49
2021/08/30 05:18:08;;;;;;;;;20.50;20.50;;;;;19.82;64.05;101388.72;5079493;28;47543;-53
2021/08/30 05:20:33;;;;;;;;;21.00;20.50;;;;;19.84;64.43;101390.41;5079589;28;45360;-53
2021/08/30 05:22:59;;;;;;;;;18.50;18.00;;;;;19.85;64.08;101393.97;5078543;27;45542;-53
2021/08/30 05:25:24;;;;;;;;;21.25;20.50;;;;;19.86;64.66;101393.88;5060203;28;45554;-52
2021/08/30 05:27:51;;;;;;;;;21.25;21.00;;;;;19.85;64.69;101394.84;5080147;28;47074;-52
2021/08/30 05:30:17;;;;;;;;;26.25;22.50;;;;;19.86;64.60;101390.31;5079521;28;45472;-53
2021/08/30 05:32:43;;;;;;;;;22.25;20.75;;;;;19.85;64.79;101394.84;5070831;28;45578;-50
2021/08/30 05:35:09;;;;;;;;;22.00;22.00;;;;;19.85;64.81;101394.84;5078256;27;45594;-52
2021/08/30 05:37:34;;;;;;;;;18.00;17.00;;;;;19.84;64.20;101397.63;5076545;28;47361;-52
2021/08/30 05:40:00;;;;;;;;;21.00;19.50;;;;;19.84;64.43;101393.09;5061273;28;45644;-52
2021/08/30 05:42:25;;;;;;;;;19.25;19.25;;;;;19.86;64.76;101401.09;5061525;27;46031;-50
2021/08/30 05:44:50;;;;;;;;;20.25;20.25;;;;;19.86;64.50;101396.59;5078520;27;45483;-50
2021/08/30 05:47:16;;;;;;;;;21.50;21.00;;;;;19.88;64.52;101393.81;5080249;27;46945;-53
2021/08/30 05:49:41;;;;;;;;;25.75;22.00;;;;;19.88;64.75;101393.81;5082046;27;45668;-52
2021/08/30 05:52:07;;;;;;;;;23.25;22.00;;;;;19.87;64.61;101395.63;5079333;27;45468;-53
2021/08/30 05:54:33;;;;;;;;;26.50;25.25;;;;;19.88;64.95;101396.50;5080232;27;45518;-52
2021/08/30 05:56:58;;;;;;;;;27.00;23.25;;;;;19.88;64.88;101397.38;5077187;27;48425;-50
2021/08/30 05:59:23;;;;;;;;;25.75;24.75;;;;;19.88;64.54;101397.38;5061381;27;45358;-50
2021/08/30 06:01:49;;;;;;;;;28.00;25.50;;;;;19.91;64.77;101399.91;5079942;27;45429;-51
2021/08/30 06:04:14;;;;;;;;;29.50;27.00;;;;;19.94;64.50;101404.25;5079480;27;45538;-52
2021/08/30 06:06:40;;;;;;;;;26.00;25.00;;;;;19.95;64.85;101408.72;5076448;27;48525;-50
2021/08/30 06:09:05;;;;;;;;;25.75;25.25;;;;;19.95;64.59;101412.28;5078790;27;45457;-50
2021/08/30 06:11:31;;;;;;;;;26.50;23.00;;;;;19.95;64.58;101408.72;5079609;27;45396;-48
2021/08/30 06:13:56;;;;;;;;;25.75;24.25;;;;;19.96;64.80;101411.34;5060921;27;45653;-52
2021/08/30 06:16:22;;;;;;;;;31.00;30.00;;;;;19.96;64.52;101408.66;5079513;27;47194;-53
2021/08/30 06:18:47;;;;;;;;;29.75;29.25;;;;;19.98;64.49;101406.75;5060954;27;45878;-52
2021/08/30 06:21:13;;;;;;;;;28.00;27.25;;;;;19.99;64.76;101403.09;5061184;28;45451;-51
2021/08/30 06:23:38;;;;;;;;;29.50;29.50;;;;;19.99;64.85;101413.88;5079990;27;45488;-52
2021/08/30 06:26:04;;;;;;;;;35.00;30.25;;;;;20.00;64.48;101412.06;5043314;28;46884;-52
2021/08/30 06:28:29;;;;;;;;;33.50;28.50;;;;;20.02;64.50;101415.53;5079474;27;45320;-53
2021/08/30 06:30:55;;;;;;;;;27.25;25.50;;;;;20.05;64.86;101414.50;5069206;27;45640;-54
2021/08/30 06:33:21;;;;;;;;;26.50;26.25;;;;;20.04;64.44;101427.13;5060273;27;45532;-51
2021/08/30 06:35:47;;;;;;;;;31.50;29.25;;;;;20.04;64.35;101429.81;5073413;27;47251;-53
2021/08/30 06:38:14;;;;;;;;;28.00;26.00;;;;;20.05;64.33;101426.16;5076256;27;45361;-53
2021/08/30 06:40:40;;;;;;;;;33.50;28.75;;;;;20.06;64.39;101429.72;5078092;27;45498;-53
2021/08/30 06:43:06;;;;;;;;;29.50;28.00;;;;;20.08;64.60;101425.16;5079097;27;45509;-52
2021/08/30 06:45:32;;;;;;;;;27.25;27.00;;;;;20.10;64.57;101423.25;5078230;27;47261;-50
2021/08/30 06:47:57;;;;;;;;;31.00;29.75;;;;;20.12;64.19;101421.34;5079013;27;45609;-53
2021/08/30 06:50:23;;;;;;;;;30.25;28.25;;;;;20.16;64.36;101425.63;5078603;27;45492;-51
2021/08/30 06:52:50;;;;;;;;;25.75;24.25;;;;;20.18;64.26;101421.03;5060429;28;45901;-51
2021/08/30 06:55:15;;;;;;;;;31.50;28.50;;;;;20.21;64.10;101423.59;5085704;27;46401;-53
2021/08/30 06:57:41;;;;;;;;;29.00;29.00;;;;;20.24;64.02;101423.44;5059964;28;45394;-53
2021/08/30 07:00:08;;;;;;;;;28.00;27.50;;;;;20.27;64.36;101420.56;5077490;27;45667;-54
2021/08/30 07:02:33;;;;;;;;;24.50;24.50;;;;;20.28;63.85;101416.91;5080687;27;45516;-51
2021/08/30 07:05:00;;;;;;;;;28.25;27.75;;;;;20.31;64.16;101426.66;5069714;28;46319;-54
2021/08/30 07:07:25;;;;;;;;;25.00;25.00;;;;;20.32;63.83;101420.31;5078742;27;45378;-50
2021/08/30 07:09:51;;;;;;;;;25.75;24.75;;;;;20.34;63.73;101424.72;5077977;27;45312;-53
2021/08/30 07:12:16;;;;;;;;;24.00;23.75;;;;;20.36;63.62;101435.41;5066603;28;45385;-53
2021/08/30 07:14:42;;;;;;;;;29.50;25.00;;;;;20.39;63.45;101443.34;5077317;28;48087;-52
2021/08/30 07:17:08;;;;;;;;;29.75;28.00;;;;;20.40;63.42;101437.00;5055975;28;46019;-53
2021/08/30 07:19:33;;;;;;;;;27.75;27.75;;;;;20.43;63.26;101443.13;5078320;27;45381;-53
2021/08/30 07:21:59;;;;;;;;;22.25;22.00;;;;;20.43;63.68;101436.84;5078879;27;45698;-54
2021/08/30 07:24:25;;;;;;;;;27.75;23.50;;;;;20.44;63.41;101450.25;5058914;28;45996;-54
2021/08/30 07:26:50;;;;;;;;;24.50;24.50;;;;;20.48;63.75;101449.16;5061620;28;45790;-54
2021/08/30 07:29:16;;;;;;;;;26.25;24.50;;;;;20.53;62.94;101446.22;5078458;27;46711;-52
2021/08/30 07:31:42;;;;;;;;;27.75;26.75;;;;;20.58;63.36;101452.25;5083986;27;45693;-51
2021/08/30 07:34:07;;;;;;;;;24.75;24.00;;;;;20.62;63.23;101450.28;5078095;27;47803;-52
2021/08/30 07:36:33;;;;;;;;;23.00;21.75;;;;;20.62;62.85;101448.47;5045949;28;45460;-53
2021/08/30 07:39:02;;;;;;;;;22.25;22.25;;;;;20.62;62.49;101450.28;5077335;28;45358;-54
2021/08/30 07:41:28;;;;;;;;;29.25;25.75;;;;;20.64;62.61;101456.47;5077730;27;45328;-53
2021/08/30 07:43:54;;;;;;;;;22.75;21.75;;;;;20.68;62.96;101467.00;5077316;28;46291;-53
2021/08/30 07:46:20;;;;;;;;;20.25;17.75;;;;;20.72;62.49;101465.03;5077186;27;45658;-54
2021/08/30 07:48:48;;;;;;;;;23.50;21.00;;;;;20.75;62.73;101463.06;5080650;27;45551;-51
2021/08/30 07:51:13;;;;;;;;;25.00;24.00;;;;;20.81;62.15;101467.25;5076198;27;45728;-55
2021/08/30 07:53:40;;;;;;;;;21.75;20.75;;;;;20.84;61.77;101470.66;5076974;27;47250;-53
2021/08/30 07:56:06;;;;;;;;;20.50;20.50;;;;;20.84;61.59;101461.72;5075852;27;45485;-50
2021/08/30 07:58:32;;;;;;;;;18.75;18.50;;;;;20.86;61.52;101468.75;5080065;27;45282;-52
2021/08/30 08:00:58;;;;;;;;;22.00;22.00;;;;;20.91;61.95;101471.22;5075820;27;45467;-51
2021/08/30 08:03:23;;;;;;;;;20.00;16.25;;;;;20.95;61.29;101471.91;5077102;27;48009;-52
2021/08/30 08:05:49;;;;;;;;;18.25;17.25;;;;;20.96;60.87;101470.94;5077465;27;45513;-53
2021/08/30 08:08:14;;;;;;;;;17.00;16.75;;;;;20.96;60.99;101479.94;5077313;27;45956;-53
2021/08/30 08:10:40;;;;;;;;;19.50;18.50;;;;;21.00;60.99;101484.22;5059749;28;45673;-50
2021/08/30 08:13:06;;;;;;;;;19.25;17.50;;;;;21.02;60.42;101486.84;5074140;28;45607;-52
2021/08/30 08:15:32;;;;;;;;;17.50;16.50;;;;;21.02;60.53;101492.22;5077604;27;45604;-53
2021/08/30 08:17:57;;;;;;;;;22.50;19.75;;;;;21.01;60.95;101485.97;5076887;27;45418;-52
2021/08/30 08:20:23;;;;;;;;;24.50;21.50;;;;;21.02;60.49;101490.41;5076414;27;45286;-53
2021/08/30 08:22:48;;;;;;;;;19.75;18.50;;;;;21.03;60.51;101484.06;5077238;27;45793;-53
2021/08/30 08:25:15;;;;;;;;;25.50;22.50;;;;;21.05;60.09;101484.84;5061305;28;45593;-52
2021/08/30 08:27:41;;;;;;;;;18.67;15.67;;;;;21.06;60.15;101488.41;5076484;27;45711;-54
2021/08/30 08:30:08;;;;;;;;;19.00;19.00;;;;;21.08;60.29;101481.09;5077888;27;45550;-50
2021/08/30 08:32:33;;;;;;;;;21.50;20.50;;;;;21.08;59.87;101486.50;5075945;27;46694;-53
2021/08/30 08:34:59;;;;;;;;;19.25;16.75;;;;;21.11;60.35;101487.22;5076268;27;45235;-53
2021/08/30 08:37:24;;;;;;;;;22.50;22.50;;;;;21.17;60.13;101491.41;5077343;27;45387;-52
2021/08/30 08:39:50;;;;;;;;;21.75;21.75;;;;;21.21;60.27;101489.41;5077255;27;45436;-51
2021/08/30 08:42:16;;;;;;;;;25.50;22.25;;;;;21.25;60.09;101493.72;5065757;27;47303;-50
2021/08/30 08:44:45;;;;;;;;;17.00;16.33;;;;;21.29;59.59;101485.38;5081113;27;45376;-48
2021/08/30 08:47:15;;;;;;;;;18.25;17.25;;;;;21.35;59.39;101495.00;5080664;27;45617;-52
2021/08/30 08:49:41;;;;;;;;;15.00;14.67;;;;;21.40;59.10;101487.50;5064334;27;45606;-51
2021/08/30 08:52:06;;;;;;;;;15.25;15.25;;;;;21.49;59.17;101495.13;5080447;27;45608;-51
2021/08/30 08:54:32;;;;;;;;;18.25;17.00;;;;;21.57;58.63;101494.66;5080271;27;46568;-52
2021/08/30 08:56:58;;;;;;;;;18.00;18.00;;;;;21.63;58.99;101497.06;5081318;27;45448;-51
2021/08/30 08:59:23;;;;;;;;;18.50;18.50;;;;;21.64;58.65;101494.25;5081990;27;45765;-53
2021/08/30 09:01:59;;;;;;;;;18.75;17.75;;;;;21.62;58.12;101490.78;5080106;27;45354;-54
2021/08/30 09:04:32;;;;;;;;;17.67;16.00;;;;;21.65;57.61;101493.28;5080748;27;45508;-52
2021/08/30 09:07:12;;;;;;;;;17.25;17.00;;;;;21.67;57.79;101493.22;5062605;28;45510;-51
2021/08/30 09:09:39;;;;;;;;;17.00;17.00;;;;;21.70;57.54;101493.03;5079274;27;45498;-52
2021/08/30 09:12:17;;;;;;;;;19.25;18.50;;;;;21.70;57.63;101502.00;5080088;27;47385;-52
2021/08/30 09:14:42;;;;;;;;;20.25;18.50;;;;;21.70;57.73;101493.91;5079662;27;45876;-52
2021/08/30 09:17:10;;;;;;;;;17.75;15.00;;;;;21.70;57.45;101502.00;5080196;27;45648;-50
2021/08/30 09:19:37;;;;;;;;;20.00;19.00;;;;;21.71;57.36;101506.44;5077527;27;45370;-52
2021/08/30 09:22:04;;;;;;;;;20.00;19.00;;;;;21.75;57.84;101509.88;5087157;27;45362;-50
2021/08/30 09:24:30;;;;;;;;;18.75;18.00;;;;;21.80;57.59;101512.31;5080984;27;46082;-51
2021/08/30 09:27:06;;;;;;;;;16.00;16.00;;;;;21.85;57.34;101511.13;5079098;27;45419;-52
2021/08/30 09:29:34;;;;;;;;;18.75;17.25;;;;;21.89;57.07;101518.06;5063570;28;45741;-53
2021/08/30 09:32:08;;;;;;;;;14.25;14.25;;;;;21.93;56.77;101513.38;5080685;28;45454;-51
2021/08/30 09:34:40;;;;;;;;;18.50;18.50;;;;;21.99;56.60;101510.34;5079296;27;45700;-54
2021/08/30 09:37:23;;;;;;;;;19.75;18.50;;;;;22.08;56.52;101507.13;5079249;27;45385;-55
2021/08/30 09:39:50;;;;;;;;;15.00;13.50;;;;;22.19;56.66;101506.50;5076751;27;45591;-52
2021/08/30 09:42:16;;;;;;;;;17.25;15.75;;;;;22.26;56.08;101516.03;5071668;27;48220;-50
2021/08/30 09:44:41;;;;;;;;;15.33;12.67;;;;;22.25;56.05;101515.16;5079034;27;45690;-51
2021/08/30 09:47:11;;;;;;;;;12.67;12.67;;;;;22.23;55.34;101508.06;5081849;27;45733;-49
2021/08/30 09:49:38;;;;;;;;;13.33;13.33;;;;;22.21;55.47;101513.56;5080469;27;45776;-49
2021/08/30 09:52:04;;;;;;;;;16.33;15.00;;;;;22.20;55.06;101509.13;5077562;27;47940;-51
2021/08/30 09:54:30;;;;;;;;;15.00;15.00;;;;;22.21;55.54;101508.16;5079415;27;46011;-52
2021/08/30 09:56:57;;;;;;;;;15.75;15.75;;;;;22.27;55.58;101501.53;5061019;28;45869;-50
2021/08/30 09:59:25;;;;;;;;;15.00;14.00;;;;;22.33;55.15;101507.44;5063152;28;45702;-50
2021/08/30 10:01:52;;;;;;;;;13.00;12.25;;;;;22.39;55.58;101508.94;5068281;28;46617;-50
2021/08/30 10:04:20;;;;;;;;;13.00;12.67;;;;;22.41;54.93;101496.19;5067390;28;45580;-52
2021/08/30 10:06:48;;;;;;;;;15.50;13.75;;;;;22.45;54.80;101495.03;5080078;27;46744;-50
2021/08/30 10:09:16;;;;;;;;;13.00;13.00;;;;;22.51;54.72;101499.22;5077834;27;45862;-52
2021/08/30 10:11:44;;;;;;;;;12.67;12.33;;;;;22.51;54.73;101492.00;5079268;27;48156;-52
2021/08/30 10:14:30;;;;;;;;;15.00;14.75;;;;;22.47;54.41;101505.75;5078443;27;46121;-54
2021/08/30 10:17:02;;;;;;;;;14.00;14.00;;;;;22.41;54.52;101492.63;5075149;27;45771;-52
2021/08/30 10:19:30;;;;;;;;;15.25;14.75;;;;;22.41;54.81;101498.03;5062977;28;45654;-53
2021/08/30 10:21:59;;;;;;;;;13.00;13.00;;;;;22.43;54.66;101488.84;5078688;27;45372;-54
2021/08/30 10:24:25;;;;;;;;;15.00;12.50;;;;;22.46;54.52;101480.56;5078271;27;45313;-55
2021/08/30 10:27:00;;;;;;;;;16.00;13.33;;;;;22.50;54.49;101490.25;5078434;28;45219;-54
2021/08/30 10:29:34;;;;;;;;;15.25;14.50;;;;;22.56;54.31;101487.16;5078297;28;45687;-56
2021/08/30 10:32:00;;;;;;;;;12.00;11.00;;;;;22.60;53.85;101494.13;5072525;27;46855;-54
2021/08/30 10:34:28;;;;;;;;;10.00;10.00;;;;;22.65;53.96;101490.28;5060480;28;45424;-56
2021/08/30 10:36:55;;;;;;;;;12.75;12.75;;;;;22.73;53.61;101490.69;5060441;27;47062;-53
2021/08/30 10:39:42;;;;;;;;;12.67;10.67;;;;;22.84;53.53;101494.53;5078679;27;45881;-55
2021/08/30 10:42:12;;;;;;;;;12.50;12.00;;;;;22.93;53.22;101490.41;5075558;27;46804;-50
2021/08/30 10:44:54;;;;;;;;;15.25;13.75;;;;;23.00;53.20;101496.31;5077236;27;45809;-54
2021/08/30 10:47:25;;;;;;;;;15.25;13.50;;;;;23.00;53.32;101496.31;5067849;27;45917;-53
2021/08/30 10:49:51;;;;;;;;;15.00;11.33;;;;;22.96;52.80;101492.03;5078660;28;45747;-51
2021/08/30 10:52:17;;;;;;;;;13.67;13.33;;;;;22.89;53.19;101491.56;5078190;28;48568;-54
2021/08/30 10:54:53;;;;;;;;;13.67;13.33;;;;;22.84;52.76;101499.06;5077612;28;45673;-54
2021/08/30 10:57:30;;;;;;;;;16.67;15.33;;;;;22.77;52.79;101490.44;5078382;27;45352;-53
2021/08/30 10:59:58;;;;;;;;;16.33;13.67;;;;;22.72;52.70;101495.22;5073567;27;45406;-54
2021/08/30 11:02:35;;;;;;;;;13.00;12.00;;;;;22.68;53.12;101492.81;5077260;28;47004;-54
2021/08/30 11:05:01;;;;;;;;;15.67;13.33;;;;;22.67;52.76;101486.53;5076277;27;45777;-52
2021/08/30 11:07:27;;;;;;;;;13.67;12.67;;;;;22.74;52.96;101497.84;5075648;27;45389;-52
2021/08/30 11:09:52;;;;;;;;;17.50;15.75;;;;;22.84;52.75;101493.66;5058555;28;45679;-52
2021/08/30 11:12:18;;;;;;;;;15.00;14.33;;;;;22.93;52.37;101495.81;5077458;28;48384;-55
2021/08/30 11:14:54;;;;;;;;;14.00;14.00;;;;;23.04;52.34;101496.03;5076275;28;45778;-49
2021/08/30 11:17:28;;;;;;;;;16.50;14.25;;;;;23.14;52.35;101501.75;5054396;28;45308;-52
2021/08/30 11:19:58;;;;;;;;;15.00;15.00;;;;;23.19;52.09;101505.91;5076991;27;45446;-52
2021/08/30 11:22:24;;;;;;;;;13.00;13.00;;;;;23.20;52.00;101502.22;5060902;28;48568;-53